createdAt,value
2018-11-29T00:00:34.327Z,5.30
2018-11-29T00:03:02.751Z,5.30
2018-11-29T00:05:31.270Z,5.30
2018-11-29T00:07:59.639Z,5.30
2018-11-29T00:10:28.027Z,5.40
2018-11-29T00:12:56.364Z,5.40
2018-11-29T00:15:24.726Z,5.40
2018-11-29T00:17:53.150Z,5.40
2018-11-29T00:20:21.531Z,5.40
2018-11-29T00:22:50.595Z,5.40
2018-11-29T00:25:19.519Z,5.40
2018-11-29T00:27:48.067Z,5.40
2018-11-29T00:30:21.219Z,5.40
2018-11-29T00:32:49.961Z,5.40
2018-11-29T00:35:18.520Z,5.50
2018-11-29T00:37:47.009Z,5.40
2018-11-29T00:40:23.662Z,5.40
2018-11-29T00:42:52.235Z,5.40
2018-11-29T00:45:22.523Z,5.40
2018-11-29T00:47:51.143Z,5.40
2018-11-29T00:50:20.048Z,5.40
2018-11-29T00:52:49.198Z,5.40
2018-11-29T00:55:19.328Z,5.40
2018-11-29T00:57:47.718Z,5.40
2018-11-29T01:00:20.024Z,5.40
2018-11-29T01:02:48.515Z,5.40
2018-11-29T01:05:16.875Z,5.40
2018-11-29T01:07:45.283Z,5.40
2018-11-29T01:10:14.524Z,5.40
2018-11-29T01:12:43.028Z,5.40
2018-11-29T01:15:19.069Z,5.30
2018-11-29T01:17:48.191Z,5.40
2018-11-29T01:20:17.610Z,5.40
2018-11-29T01:22:46.013Z,5.30
2018-11-29T01:25:14.997Z,5.40
2018-11-29T01:27:44.383Z,5.40
2018-11-29T01:30:16.330Z,5.40
2018-11-29T01:32:44.742Z,5.30
2018-11-29T01:35:15.106Z,5.30
2018-11-29T01:37:43.482Z,5.30
2018-11-29T01:40:17.487Z,5.30
2018-11-29T01:43:02.030Z,5.30
2018-11-29T01:45:30.430Z,5.30
2018-11-29T01:47:58.822Z,5.20
2018-11-29T01:50:27.179Z,5.30
2018-11-29T01:52:55.593Z,5.30
2018-11-29T01:55:23.962Z,5.30
2018-11-29T01:57:52.373Z,5.20
2018-11-29T02:00:20.752Z,5.10
2018-11-29T02:02:52.675Z,5.10
2018-11-29T02:05:21.118Z,5.10
2018-11-29T02:07:49.532Z,5.10
2018-11-29T02:10:23.341Z,5.10
2018-11-29T02:12:52.134Z,5.10
2018-11-29T02:15:20.495Z,5.00
2018-11-29T02:17:48.853Z,5.00
2018-11-29T02:20:17.950Z,4.90
2018-11-29T02:22:46.565Z,5.00
2018-11-29T02:25:14.995Z,5.00
2018-11-29T02:27:43.322Z,5.00
2018-11-29T02:30:20.259Z,4.90
2018-11-29T02:32:48.654Z,4.90
2018-11-29T02:35:17.171Z,4.90
2018-11-29T02:37:45.525Z,4.90
2018-11-29T02:40:14.850Z,4.90
2018-11-29T02:42:43.495Z,4.90
2018-11-29T02:45:13.107Z,4.90
2018-11-29T02:47:41.490Z,4.90
2018-11-29T02:50:10.667Z,5.00
2018-11-29T02:52:39.006Z,5.00
2018-11-29T02:55:10.283Z,5.00
2018-11-29T02:57:38.695Z,4.90
2018-11-29T03:00:13.153Z,4.90
2018-11-29T03:02:41.598Z,4.90
2018-11-29T03:05:10.100Z,4.90
2018-11-29T03:07:38.541Z,4.90
2018-11-29T03:10:09.035Z,4.90
2018-11-29T03:12:37.402Z,4.90
2018-11-29T03:15:10.035Z,4.90
2018-11-29T03:17:38.475Z,4.90
2018-11-29T03:20:08.500Z,4.80
2018-11-29T03:22:36.821Z,4.80
2018-11-29T03:25:09.053Z,4.70
2018-11-29T03:27:37.436Z,4.70
2018-11-29T03:30:08.573Z,4.70
2018-11-29T03:32:36.917Z,4.80
2018-11-29T03:35:05.322Z,4.70
2018-11-29T03:37:33.685Z,4.70
2018-11-29T03:40:02.088Z,4.70
2018-11-29T03:42:30.450Z,4.70
2018-11-29T03:44:58.941Z,4.70
2018-11-29T03:47:27.405Z,4.60
2018-11-29T03:49:55.763Z,4.50
2018-11-29T03:52:24.147Z,4.40
2018-11-29T03:54:52.523Z,4.40
2018-11-29T03:57:20.867Z,4.30
2018-11-29T03:59:49.216Z,4.30
2018-11-29T04:02:17.579Z,4.30
2018-11-29T04:04:45.935Z,4.40
2018-11-29T04:07:14.295Z,4.40
2018-11-29T04:09:42.662Z,4.40
2018-11-29T04:12:11.004Z,4.40
2018-11-29T04:14:39.409Z,4.30
2018-11-29T04:17:07.777Z,4.30
2018-11-29T04:19:36.211Z,4.20
2018-11-29T04:22:04.626Z,4.20
2018-11-29T04:24:32.969Z,4.30
2018-11-29T04:27:01.332Z,4.30
2018-11-29T04:29:29.707Z,4.30
2018-11-29T04:31:58.226Z,4.30
2018-11-29T04:34:26.606Z,4.30
2018-11-29T04:36:54.983Z,4.20
2018-11-29T04:39:23.344Z,4.20
2018-11-29T04:41:51.703Z,4.20
2018-11-29T04:44:20.036Z,4.20
2018-11-29T04:46:50.523Z,4.20
2018-11-29T04:49:18.925Z,4.20
2018-11-29T04:51:47.414Z,4.20
2018-11-29T04:54:15.753Z,4.10
2018-11-29T04:56:44.138Z,4.10
2018-11-29T04:59:12.526Z,4.10
2018-11-29T05:01:40.889Z,4.10
2018-11-29T05:04:09.301Z,4.10
2018-11-29T05:06:37.642Z,4.10
2018-11-29T05:09:08.678Z,4.10
2018-11-29T05:11:37.427Z,4.20
2018-11-29T05:14:06.071Z,4.10
2018-11-29T05:16:34.435Z,4.10
2018-11-29T05:19:02.791Z,4.00
2018-11-29T05:21:31.192Z,3.90
2018-11-29T05:23:59.565Z,4.00
2018-11-29T05:26:27.936Z,4.00
2018-11-29T05:28:56.327Z,3.80
2018-11-29T05:31:24.706Z,3.80
2018-11-29T05:33:53.068Z,3.80
2018-11-29T05:36:21.419Z,3.80
2018-11-29T05:38:49.800Z,3.80
2018-11-29T05:41:18.177Z,3.80
2018-11-29T05:43:46.809Z,3.80
2018-11-29T05:46:15.242Z,3.80
2018-11-29T05:48:43.693Z,3.70
2018-11-29T05:51:12.031Z,3.70
2018-11-29T05:53:40.525Z,3.70
2018-11-29T05:56:08.902Z,3.70
2018-11-29T05:58:37.237Z,3.60
2018-11-29T06:01:11.757Z,3.60
2018-11-29T06:03:40.167Z,3.70
2018-11-29T06:06:08.531Z,3.80
2018-11-29T06:08:36.877Z,3.80
2018-11-29T06:11:05.546Z,3.80
2018-11-29T06:13:33.931Z,3.90
2018-11-29T06:16:02.305Z,3.90
2018-11-29T06:18:30.668Z,4.00
2018-11-29T06:20:59.033Z,4.00
2018-11-29T06:23:27.430Z,4.00
2018-11-29T06:25:55.804Z,3.90
2018-11-29T06:28:24.169Z,3.90
2018-11-29T06:30:52.527Z,3.90
2018-11-29T06:33:20.905Z,3.90
2018-11-29T06:35:49.295Z,3.90
2018-11-29T06:38:17.756Z,3.90
2018-11-29T06:40:46.170Z,4.00
2018-11-29T06:43:14.535Z,4.00
2018-11-29T06:45:42.876Z,4.00
2018-11-29T06:48:11.264Z,4.00
2018-11-29T06:50:39.674Z,3.90
2018-11-29T06:53:13.422Z,3.90
2018-11-29T06:55:41.807Z,3.90
2018-11-29T06:58:10.218Z,3.80
2018-11-29T07:00:38.578Z,3.90
2018-11-29T07:03:06.999Z,3.90
2018-11-29T07:05:35.372Z,3.90
2018-11-29T07:08:03.769Z,3.90
2018-11-29T07:10:32.151Z,4.00
2018-11-29T07:13:00.795Z,4.00
2018-11-29T07:15:29.151Z,4.00
2018-11-29T07:17:57.611Z,3.90
2018-11-29T07:20:25.958Z,4.00
2018-11-29T07:22:54.402Z,4.10
2018-11-29T07:25:22.818Z,4.10
2018-11-29T07:27:51.160Z,4.10
2018-11-29T07:30:19.886Z,3.90
2018-11-29T07:32:48.210Z,3.90
2018-11-29T07:35:17.084Z,4.00
2018-11-29T07:37:45.430Z,4.00
2018-11-29T07:40:16.790Z,4.10
2018-11-29T07:42:46.145Z,4.20
2018-11-29T07:45:16.546Z,4.20
2018-11-29T07:47:45.365Z,4.30
2018-11-29T07:50:14.860Z,4.40
2018-11-29T07:52:43.353Z,4.40
2018-11-29T07:55:19.842Z,4.50
2018-11-29T07:57:49.474Z,4.40
2018-11-29T08:00:18.016Z,4.40
2018-11-29T08:02:46.401Z,4.40
2018-11-29T08:05:15.517Z,4.40
2018-11-29T08:07:47.705Z,4.40
2018-11-29T08:10:17.155Z,4.40
2018-11-29T08:12:45.623Z,4.50
2018-11-29T08:15:15.175Z,4.60
2018-11-29T08:17:43.545Z,4.60
2018-11-29T08:20:16.922Z,4.70
2018-11-29T08:22:45.374Z,4.70
2018-11-29T08:25:13.769Z,4.80
2018-11-29T08:27:42.187Z,4.90
2018-11-29T08:30:13.251Z,4.80
2018-11-29T08:32:42.058Z,4.90
2018-11-29T08:35:12.288Z,4.90
2018-11-29T08:37:42.699Z,4.90
2018-11-29T08:40:14.515Z,5.00
2018-11-29T08:42:42.974Z,5.10
2018-11-29T08:45:11.879Z,5.20
2018-11-29T08:47:40.648Z,5.30
2018-11-29T08:50:11.006Z,5.30
2018-11-29T08:52:39.852Z,5.30
2018-11-29T08:55:15.250Z,5.40
2018-11-29T08:57:43.727Z,5.30
2018-11-29T09:00:13.993Z,5.20
2018-11-29T09:02:42.741Z,5.10
2018-11-29T09:05:11.824Z,5.10
2018-11-29T09:07:40.248Z,5.20
2018-11-29T09:10:12.841Z,5.20
2018-11-29T09:12:41.374Z,5.40
2018-11-29T09:15:11.812Z,5.50
2018-11-29T09:17:40.283Z,5.70
2018-11-29T09:20:10.303Z,5.80
2018-11-29T09:22:38.740Z,5.90
2018-11-29T09:25:09.230Z,6.00
2018-11-29T09:27:37.662Z,6.10
2018-11-29T09:30:13.768Z,6.10
2018-11-29T09:32:42.691Z,6.20
2018-11-29T09:35:11.146Z,6.30
2018-11-29T09:37:39.548Z,6.60
2018-11-29T09:40:13.036Z,6.70
2018-11-29T09:42:41.502Z,6.90
2018-11-29T09:45:13.987Z,6.90
2018-11-29T09:47:42.667Z,7.00
2018-11-29T09:50:13.103Z,7.20
2018-11-29T09:52:41.559Z,7.20
2018-11-29T09:55:13.734Z,7.20
2018-11-29T09:57:42.610Z,7.20
2018-11-29T10:00:12.695Z,7.10
2018-11-29T10:02:41.406Z,7.00
2018-11-29T10:05:10.755Z,7.00
2018-11-29T10:07:39.120Z,7.00
2018-11-29T10:10:09.360Z,7.00
2018-11-29T10:12:37.790Z,7.00
2018-11-29T10:15:08.323Z,7.20
2018-11-29T10:17:36.726Z,7.40
2018-11-29T10:20:06.944Z,7.60
2018-11-29T10:22:35.263Z,7.70
2018-11-29T10:25:03.996Z,7.60
2018-11-29T10:27:32.393Z,7.60
2018-11-29T10:30:00.750Z,7.80
2018-11-29T10:32:29.122Z,7.90
2018-11-29T10:34:57.490Z,8.20
2018-11-29T10:37:25.822Z,8.00
2018-11-29T10:39:54.182Z,7.90
2018-11-29T10:42:22.533Z,7.80
2018-11-29T10:44:50.918Z,7.90
2018-11-29T10:47:19.326Z,7.90
2018-11-29T10:49:47.746Z,8.00
2018-11-29T10:52:16.145Z,8.10
2018-11-29T10:54:44.488Z,8.20
2018-11-29T10:57:12.878Z,8.10
2018-11-29T10:59:41.226Z,8.10
2018-11-29T11:02:14.407Z,8.30
2018-11-29T11:04:42.750Z,8.30
2018-11-29T11:07:11.154Z,8.60
2018-11-29T11:09:39.491Z,8.80
2018-11-29T11:12:07.867Z,9.00
2018-11-29T11:14:36.306Z,9.00
2018-11-29T11:17:04.607Z,9.00
2018-11-29T11:19:33.044Z,9.10
2018-11-29T11:22:01.413Z,9.20
2018-11-29T11:24:29.800Z,9.30
2018-11-29T11:26:58.175Z,9.20
2018-11-29T11:29:26.555Z,9.30
2018-11-29T11:31:54.982Z,9.30
2018-11-29T11:34:23.490Z,9.50
2018-11-29T11:36:51.854Z,9.20
2018-11-29T11:39:20.262Z,9.40
2018-11-29T11:41:48.610Z,9.50
2018-11-29T11:44:17.004Z,9.50
2018-11-29T11:46:45.508Z,9.60
2018-11-29T11:49:13.849Z,9.40
2018-11-29T11:51:42.299Z,9.40
2018-11-29T11:54:10.678Z,9.50
2018-11-29T11:56:39.155Z,9.40
2018-11-29T11:59:07.637Z,9.10
2018-11-29T12:01:35.998Z,9.10
2018-11-29T12:04:04.446Z,8.80
2018-11-29T12:06:32.896Z,8.80
2018-11-29T12:09:01.276Z,9.10
2018-11-29T12:11:31.167Z,9.20
2018-11-29T12:13:58.014Z,9.20
2018-11-29T12:16:26.485Z,8.90
2018-11-29T12:18:54.847Z,9.00
2018-11-29T12:21:23.311Z,9.10
2018-11-29T12:23:51.666Z,9.20
2018-11-29T12:26:20.183Z,9.30
2018-11-29T12:28:48.655Z,9.50
2018-11-29T12:31:17.103Z,9.40
2018-11-29T12:33:45.593Z,9.50
2018-11-29T12:36:13.961Z,9.50
2018-11-29T12:38:42.338Z,9.60
2018-11-29T12:41:10.786Z,9.60
2018-11-29T12:43:39.215Z,9.50
2018-11-29T12:46:07.675Z,9.50
2018-11-29T12:48:36.118Z,9.60
2018-11-29T12:51:04.713Z,9.50
2018-11-29T12:53:33.221Z,9.50
2018-11-29T12:56:01.735Z,9.50
2018-11-29T12:58:30.252Z,9.40
2018-11-29T13:00:58.757Z,9.30
2018-11-29T13:03:27.220Z,9.30
2018-11-29T13:05:55.629Z,9.30
2018-11-29T13:08:24.906Z,9.30
2018-11-29T13:10:53.315Z,9.40
2018-11-29T13:13:21.798Z,9.30
2018-11-29T13:15:50.221Z,9.20
2018-11-29T13:18:18.562Z,8.90
2018-11-29T13:20:47.075Z,8.90
2018-11-29T13:23:15.460Z,8.90
2018-11-29T13:25:43.907Z,8.90
2018-11-29T13:28:12.335Z,8.80
2018-11-29T13:30:40.781Z,8.70
2018-11-29T13:33:09.968Z,8.90
2018-11-29T13:35:38.357Z,8.80
2018-11-29T13:38:14.439Z,8.80
2018-11-29T13:40:45.109Z,8.80
2018-11-29T13:43:13.690Z,8.90
2018-11-29T13:45:42.371Z,8.90
2018-11-29T13:48:12.153Z,8.90
2018-11-29T13:50:40.744Z,8.90
2018-11-29T13:53:09.124Z,9.00
2018-11-29T13:55:37.698Z,8.80
2018-11-29T13:58:06.149Z,8.60
2018-11-29T14:00:34.835Z,8.40
2018-11-29T14:03:06.169Z,8.20
2018-11-29T14:05:34.817Z,8.10
2018-11-29T14:08:03.327Z,8.10
2018-11-29T14:10:31.758Z,8.00
2018-11-29T14:13:00.292Z,8.00
2018-11-29T14:15:29.188Z,8.00
2018-11-29T14:17:57.572Z,8.10
2018-11-29T14:20:25.943Z,8.10
2018-11-29T14:22:54.388Z,8.00
2018-11-29T14:25:22.790Z,7.90
2018-11-29T14:27:52.810Z,7.90
2018-11-29T14:30:23.215Z,8.00
2018-11-29T14:32:52.225Z,8.00
2018-11-29T14:35:20.912Z,8.00
2018-11-29T14:37:49.383Z,8.00
2018-11-29T14:40:21.631Z,8.10
2018-11-29T14:42:50.568Z,8.30
2018-11-29T14:45:20.842Z,8.40
2018-11-29T14:47:49.272Z,8.40
2018-11-29T14:50:21.913Z,8.30
2018-11-29T14:52:50.332Z,8.20
2018-11-29T14:55:18.752Z,8.00
2018-11-29T14:57:47.191Z,7.90
2018-11-29T15:00:15.683Z,7.90
2018-11-29T15:02:44.079Z,7.80
2018-11-29T15:05:21.003Z,7.80
2018-11-29T15:07:49.464Z,7.80
2018-11-29T15:10:17.837Z,7.80
2018-11-29T15:12:46.292Z,7.90
2018-11-29T15:15:14.727Z,7.80
2018-11-29T15:17:43.990Z,7.50
2018-11-29T15:20:14.982Z,7.40
2018-11-29T15:22:43.602Z,7.30
2018-11-29T15:25:12.006Z,7.30
2018-11-29T15:27:40.446Z,7.30
2018-11-29T15:30:10.688Z,7.20
2018-11-29T15:32:39.100Z,7.20
2018-11-29T15:35:07.964Z,7.10
2018-11-29T15:37:36.700Z,7.00
2018-11-29T15:40:07.890Z,7.10
2018-11-29T15:42:36.352Z,7.10
2018-11-29T15:45:06.582Z,7.20
2018-11-29T15:47:35.003Z,7.20
2018-11-29T15:50:03.688Z,7.20
2018-11-29T15:52:32.083Z,7.20
2018-11-29T15:55:00.503Z,7.20
2018-11-29T15:57:34.544Z,7.10
2018-11-29T15:59:57.360Z,7.10
2018-11-29T16:02:25.773Z,7.10
2018-11-29T16:04:54.206Z,7.10
2018-11-29T16:07:23.034Z,7.10
2018-11-29T16:09:51.564Z,7.10
2018-11-29T16:12:19.986Z,7.00
2018-11-29T16:14:48.454Z,7.00
2018-11-29T16:17:16.961Z,7.00
2018-11-29T16:19:45.331Z,7.00
2018-11-29T16:22:13.838Z,7.00
2018-11-29T16:24:42.317Z,7.00
2018-11-29T16:27:10.759Z,7.00
2018-11-29T16:29:39.222Z,7.00
2018-11-29T16:32:08.551Z,7.00
2018-11-29T16:34:36.943Z,6.90
2018-11-29T16:37:05.514Z,7.00
2018-11-29T16:39:33.933Z,6.90
2018-11-29T16:42:02.500Z,6.90
2018-11-29T16:44:30.914Z,6.80
2018-11-29T16:46:59.540Z,6.60
2018-11-29T16:49:27.960Z,6.50
2018-11-29T16:51:56.386Z,6.50
2018-11-29T16:54:24.794Z,6.40
2018-11-29T16:56:53.359Z,6.30
2018-11-29T16:59:21.780Z,6.20
2018-11-29T17:01:50.297Z,6.10
2018-11-29T17:04:18.695Z,6.10
2018-11-29T17:06:47.175Z,6.10
2018-11-29T17:09:15.563Z,6.10
2018-11-29T17:11:44.001Z,6.10
2018-11-29T17:14:12.432Z,6.10
2018-11-29T17:16:40.800Z,6.10
2018-11-29T17:19:09.279Z,6.10
2018-11-29T17:21:37.755Z,6.10
2018-11-29T17:24:06.176Z,6.00
2018-11-29T17:26:34.649Z,6.00
2018-11-29T17:29:03.146Z,6.00
2018-11-29T17:31:31.595Z,6.00
2018-11-29T17:34:00.071Z,5.90
2018-11-29T17:36:28.427Z,5.80
2018-11-29T17:38:56.842Z,5.80
2018-11-29T17:41:25.209Z,5.80
2018-11-29T17:43:53.580Z,5.70
2018-11-29T17:46:21.990Z,5.60
2018-11-29T17:48:50.418Z,5.60
2018-11-29T17:51:18.884Z,5.60
2018-11-29T17:53:47.265Z,5.50
2018-11-29T17:56:15.679Z,5.40
2018-11-29T17:58:44.178Z,5.40
2018-11-29T18:01:12.611Z,5.40
2018-11-29T18:03:41.097Z,5.40
2018-11-29T18:06:09.503Z,5.40
2018-11-29T18:08:37.952Z,5.30
2018-11-29T18:11:07.415Z,5.20
2018-11-29T18:13:37.014Z,5.20
2018-11-29T18:16:06.188Z,5.20
2018-11-29T18:18:34.575Z,5.20
2018-11-29T18:21:03.178Z,5.10
2018-11-29T18:23:31.803Z,5.50
2018-11-29T18:26:00.246Z,5.40
2018-11-29T18:28:28.695Z,5.40
2018-11-29T18:30:57.110Z,5.40
2018-11-29T18:33:25.553Z,5.20
2018-11-29T18:35:54.025Z,5.10
2018-11-29T18:38:22.504Z,5.10
2018-11-29T18:40:50.974Z,5.10
2018-11-29T18:43:19.404Z,5.10
2018-11-29T18:45:48.055Z,5.10
2018-11-29T18:48:16.540Z,5.00
2018-11-29T18:50:44.917Z,5.00
2018-11-29T18:53:13.701Z,5.00
2018-11-29T18:55:42.111Z,4.90
2018-11-29T18:58:10.648Z,4.90
2018-11-29T19:00:39.187Z,4.90
2018-11-29T19:03:08.262Z,4.90
2018-11-29T19:05:36.706Z,4.90
2018-11-29T19:08:05.885Z,4.90
2018-11-29T19:10:34.407Z,4.90
2018-11-29T19:13:11.520Z,4.90
2018-11-29T19:15:40.059Z,4.90
2018-11-29T19:18:19.925Z,4.90
2018-11-29T19:20:54.822Z,4.90
2018-11-29T19:23:23.492Z,4.80
2018-11-29T19:25:52.090Z,4.80
2018-11-29T19:28:20.514Z,4.80
2018-11-29T19:30:48.860Z,4.70
2018-11-29T19:33:19.491Z,4.80
2018-11-29T19:35:49.058Z,4.80
2018-11-29T19:38:19.375Z,4.80
2018-11-29T19:40:47.931Z,4.80
2018-11-29T19:43:16.376Z,4.70
2018-11-29T19:45:44.855Z,4.70
2018-11-29T19:48:13.295Z,4.60
2018-11-29T19:50:41.862Z,4.60
2018-11-29T19:53:20.236Z,4.50
2018-11-29T19:55:49.744Z,4.40
2018-11-29T19:58:18.160Z,4.30
2018-11-29T20:00:46.749Z,4.20
2018-11-29T20:03:15.221Z,4.20
2018-11-29T20:05:43.730Z,4.20
2018-11-29T20:08:12.262Z,4.10
2018-11-29T20:10:40.877Z,4.10
2018-11-29T20:13:10.967Z,4.10
2018-11-29T20:15:40.843Z,4.10
2018-11-29T20:18:10.760Z,4.10
2018-11-29T20:20:39.210Z,4.10
2018-11-29T20:23:08.838Z,4.10
2018-11-29T20:25:37.266Z,4.10
2018-11-29T20:28:06.219Z,4.10
2018-11-29T20:30:35.267Z,4.00
2018-11-29T20:33:03.901Z,4.00
2018-11-29T20:35:32.399Z,4.00
2018-11-29T20:38:00.860Z,4.00
2018-11-29T20:40:30.946Z,4.00
2018-11-29T20:43:00.334Z,3.90
2018-11-29T20:45:33.761Z,3.90
2018-11-29T20:48:04.572Z,3.90
2018-11-29T20:50:33.062Z,3.90
2018-11-29T20:53:01.516Z,3.80
2018-11-29T20:55:31.327Z,3.70
2018-11-29T20:57:59.850Z,3.70
2018-11-29T21:00:28.347Z,3.60
2018-11-29T21:02:57.142Z,3.60
2018-11-29T21:05:25.806Z,3.50
2018-11-29T21:07:59.204Z,3.40
2018-11-29T21:10:28.040Z,3.40
2018-11-29T21:12:56.519Z,3.30
2018-11-29T21:15:24.999Z,3.30
2018-11-29T21:17:53.669Z,3.30
2018-11-29T21:20:22.129Z,3.30
2018-11-29T21:22:51.478Z,3.40
2018-11-29T21:25:22.252Z,3.40
2018-11-29T21:27:50.939Z,3.40
2018-11-29T21:30:19.417Z,3.40
2018-11-29T21:32:48.277Z,3.30
2018-11-29T21:35:18.916Z,3.40
2018-11-29T21:37:47.390Z,3.40
2018-11-29T21:40:18.645Z,3.40
2018-11-29T21:42:47.202Z,3.40
2018-11-29T21:45:15.860Z,3.40
2018-11-29T21:47:44.438Z,3.40
2018-11-29T21:50:12.898Z,3.30
2018-11-29T21:52:41.370Z,3.30
2018-11-29T21:55:09.770Z,3.40
2018-11-29T21:57:38.291Z,3.40
2018-11-29T22:00:17.561Z,3.40
2018-11-29T22:02:53.202Z,3.40
2018-11-29T22:05:21.747Z,3.40
2018-11-29T22:07:50.364Z,3.40
2018-11-29T22:10:18.758Z,3.40
2018-11-29T22:12:47.150Z,3.40
2018-11-29T22:15:15.645Z,3.40
2018-11-29T22:18:21.995Z,3.40
2018-11-29T22:20:53.523Z,3.40
2018-11-29T22:23:21.977Z,3.40
2018-11-29T22:25:50.540Z,3.30
2018-11-29T22:28:18.914Z,3.30
2018-11-29T22:30:47.298Z,3.30
2018-11-29T22:33:15.672Z,3.30
2018-11-29T22:35:44.125Z,3.30
2018-11-29T22:38:12.545Z,3.30
2018-11-29T22:40:41.016Z,3.30
2018-11-29T22:43:09.404Z,3.30
2018-11-29T22:45:37.781Z,3.30
2018-11-29T22:48:06.279Z,3.20
2018-11-29T22:50:34.682Z,3.20
2018-11-29T22:53:03.086Z,3.20
2018-11-29T22:55:31.529Z,3.10
2018-11-29T22:57:59.862Z,3.10
2018-11-29T23:00:32.453Z,3.10
2018-11-29T23:03:00.797Z,3.10
2018-11-29T23:05:29.285Z,3.00
2018-11-29T23:07:57.971Z,3.00
2018-11-29T23:10:26.349Z,2.90
2018-11-29T23:12:54.692Z,2.80
2018-11-29T23:15:23.103Z,2.80
2018-11-29T23:17:51.504Z,2.80
2018-11-29T23:20:19.949Z,2.80
2018-11-29T23:22:48.351Z,2.80
2018-11-29T23:25:16.726Z,2.80
2018-11-29T23:27:45.151Z,2.80
2018-11-29T23:30:15.561Z,2.80
2018-11-29T23:32:44.187Z,2.80
2018-11-29T23:35:13.442Z,2.80
2018-11-29T23:37:41.861Z,2.80
2018-11-29T23:40:15.044Z,2.80
2018-11-29T23:42:43.490Z,2.80
2018-11-29T23:45:12.631Z,2.80
2018-11-29T23:47:41.087Z,2.70
2018-11-29T23:50:17.160Z,2.80
2018-11-29T23:52:45.765Z,2.70
2018-11-29T23:55:17.206Z,2.80
2018-11-29T23:57:45.556Z,2.70
